Time;durP1;ratioP1;P1;durP2;ratioP2;P2;SDS_P1;SDS_P2;PMS_P1;PMS_P2;Temp;Humidity;BMP_temperature;BMP_pressure;BME280_temperature;BME280_humidity;BME280_pressure;Samples;Min_cycle;Max_cycle;Signal;HPM_P1;HPM_P2
2022/02/21 00:02:13;;;;;;;2.00;1.25;;;8.60;99.90;;;8.73;80.46;98541.59;4977407;29;20193;-76
2022/02/21 00:04:41;;;;;;;1.40;1.10;;;8.60;99.90;;;8.83;80.79;98546.31;4977116;29;20224;-74
2022/02/21 00:07:10;;;;;;;1.33;0.90;;;8.60;99.90;;;8.78;80.54;98524.66;4960162;29;20298;-74
2022/02/21 00:09:38;;;;;;;1.98;1.55;;;8.60;99.90;;;8.81;80.69;98522.28;4977345;29;20199;-75
2022/02/21 00:12:09;;;;;;;1.50;0.80;;;8.60;99.90;;;8.89;79.88;98503.00;4976448;29;20188;-74
2022/02/21 00:14:39;;;;;;;1.70;0.88;;;8.70;99.90;;;8.85;80.15;98491.06;4975972;29;20226;-75
2022/02/21 00:17:07;;;;;;;1.42;0.80;;;8.70;99.90;;;8.85;80.07;98492.97;4976248;29;20188;-74
2022/02/21 00:19:36;;;;;;;2.17;1.13;;;8.70;99.90;;;8.94;79.66;98470.69;4973113;29;20549;-75
2022/02/21 00:22:05;;;;;;;1.65;0.90;;;8.70;99.90;;;9.01;79.70;98470.50;4962126;29;20255;-76
2022/02/21 00:24:33;;;;;;;1.67;0.90;;;8.80;99.90;;;9.02;79.33;98456.75;4960252;29;20740;-74
2022/02/21 00:27:01;;;;;;;1.50;1.23;;;8.90;99.90;;;8.98;79.55;98444.03;4957243;29;20412;-75
2022/02/21 00:29:30;;;;;;;2.72;0.90;;;8.80;99.90;;;9.05;79.30;98444.69;4956201;29;20204;-75
2022/02/21 00:32:00;;;;;;;1.35;0.80;;;8.80;99.90;;;9.07;78.94;98431.72;4957015;29;20195;-75
2022/02/21 00:34:28;;;;;;;1.15;0.90;;;8.90;99.90;;;9.07;79.07;98432.56;4956781;28;20216;-75
2022/02/21 00:36:57;;;;;;;1.25;0.90;;;8.90;99.90;;;9.08;78.61;98409.91;4957323;29;20231;-75
2022/02/21 00:39:25;;;;;;;4.20;0.90;;;8.90;99.90;;;9.19;78.37;98407.31;4957134;29;20268;-75
2022/02/21 00:41:54;;;;;;;2.55;1.08;;;9.00;99.90;;;9.16;78.13;98395.16;4956247;29;20180;-75
2022/02/21 00:44:22;;;;;;;2.05;1.00;;;9.00;99.90;;;9.26;77.76;98397.13;4956399;29;20212;-73
2022/02/21 00:46:51;;;;;;;2.95;1.20;;;9.00;99.90;;;9.21;77.65;98383.59;4956495;29;20239;-74
2022/02/21 00:49:20;;;;;;;1.55;1.02;;;9.10;99.90;;;9.28;77.04;98373.41;4957189;29;20176;-75
2022/02/21 00:51:49;;;;;;;1.38;0.77;;;9.10;99.90;;;9.32;76.74;98383.44;4957962;29;20192;-74
2022/02/21 00:54:18;;;;;;;1.90;0.90;;;9.20;99.90;;;9.36;76.62;98368.38;4957327;29;20307;-75
2022/02/21 00:56:46;;;;;;;1.20;0.85;;;9.20;99.90;;;9.38;76.00;98344.66;4956714;29;20640;-76
2022/02/21 00:59:14;;;;;;;5.00;1.35;;;9.20;99.90;;;9.49;75.71;98353.63;4956026;28;20235;-77
2022/02/21 01:01:42;;;;;;;1.42;1.10;;;9.30;99.90;;;9.60;75.09;98334.56;4956365;29;20183;-74
2022/02/21 01:04:11;;;;;;;1.60;0.80;;;9.40;99.90;;;9.54;75.42;98332.09;4955477;29;20233;-74
2022/02/21 01:06:41;;;;;;;1.67;0.80;;;9.40;99.90;;;9.62;74.96;98314.63;4956234;29;20638;-75
2022/02/21 01:09:09;;;;;;;2.20;1.02;;;9.40;99.90;;;9.72;74.38;98320.91;4955939;29;20192;-76
2022/02/21 01:11:37;;;;;;;1.85;1.10;;;9.50;99.90;;;9.77;74.44;98299.34;4955909;29;20173;-75
2022/02/21 01:14:06;;;;;;;1.67;1.02;;;9.60;99.90;;;9.74;74.53;98299.03;4955692;29;20204;-74
2022/02/21 01:16:34;;;;;;;6.47;1.23;;;9.60;99.90;;;9.77;74.03;98310.16;4955710;29;20192;-75
2022/02/21 01:19:04;;;;;;;1.13;0.70;;;9.60;99.90;;;9.98;72.54;98298.38;4955277;29;20211;-75
2022/02/21 01:21:32;;;;;;;5.10;1.90;;;9.70;99.90;;;10.00;72.81;98284.63;4955787;29;20184;-75
2022/02/21 01:24:02;;;;;;;1.48;1.10;;;9.80;99.90;;;10.02;72.45;98275.16;4955479;29;20220;-74
2022/02/21 01:26:31;;;;;;;4.30;1.02;;;9.80;99.90;;;10.14;71.89;98276.88;4956326;29;20176;-75
2022/02/21 01:28:59;;;;;;;1.35;0.95;;;9.90;99.90;;;10.15;71.45;98249.59;4959986;29;20192;-75
2022/02/21 01:31:27;;;;;;;1.50;0.90;;;9.90;99.90;;;10.29;70.91;98266.97;4959521;29;20173;-75
2022/02/21 01:33:56;;;;;;;2.00;1.23;;;10.10;99.90;;;10.33;70.43;98256.44;4979624;23;20223;-70
2022/02/21 01:36:24;;;;;;;2.33;1.20;;;10.10;99.90;;;10.34;70.52;98241.84;4966597;28;20211;-70
2022/02/21 01:38:52;;;;;;;1.50;0.70;;;10.10;99.90;;;10.45;69.89;98243.53;4973104;28;20203;-69
2022/02/21 01:41:22;;;;;;;1.90;1.10;;;10.20;99.90;;;10.46;69.83;98245.94;4972916;28;20638;-70
2022/02/21 01:43:50;;;;;;;2.47;0.90;;;10.30;99.90;;;10.45;69.44;98230.81;4967879;28;20220;-71
2022/02/21 01:46:20;;;;;;;1.73;1.00;;;10.20;99.90;;;10.53;69.23;98223.25;4936078;29;20564;-70
2022/02/21 01:48:48;;;;;;;2.08;1.05;;;10.30;99.90;;;10.58;68.41;98209.75;4953622;29;20431;-69
2022/02/21 01:51:16;;;;;;;2.17;0.90;;;10.40;99.90;;;10.68;67.90;98221.41;4954093;29;20641;-68
2022/02/21 01:53:44;;;;;;;3.10;0.90;;;10.50;99.90;;;10.69;67.67;98201.41;4953665;28;20486;-70
2022/02/21 01:56:13;;;;;;;3.90;0.95;;;10.50;99.90;;;10.69;67.21;98198.72;4953435;29;20212;-69
2022/02/21 01:58:42;;;;;;;1.77;0.87;;;10.50;99.90;;;10.82;66.78;98205.47;4953751;29;20661;-70
2022/02/21 02:01:12;;;;;;;1.90;1.23;;;10.60;99.90;;;10.78;67.33;98197.09;4952564;29;20475;-68
2022/02/21 02:03:40;;;;;;;1.87;1.00;;;10.60;99.90;;;10.89;66.17;98181.69;4953556;28;20526;-69
2022/02/21 02:06:11;;;;;;;1.20;1.02;;;10.70;99.00;;;10.86;66.21;98191.13;4953403;29;20959;-68
2022/02/21 02:08:40;;;;;;;1.07;0.70;;;10.70;98.20;;;10.91;65.50;98163.28;4953482;29;20546;-69
2022/02/21 02:11:08;;;;;;;1.40;0.83;;;10.70;95.30;;;10.97;65.33;98161.38;4956973;28;20439;-68
2022/02/21 02:13:37;;;;;;;1.40;0.70;;;10.80;94.50;;;11.03;65.44;98163.03;4957797;28;20443;-68
2022/02/21 02:16:06;;;;;;;3.47;0.90;;;10.80;94.70;;;10.95;65.58;98139.19;4957285;29;20467;-68
2022/02/21 02:18:35;;;;;;;3.67;0.80;;;10.80;94.80;;;10.97;65.37;98147.88;4957279;29;20451;-69
2022/02/21 02:21:03;;;;;;;1.73;0.80;;;10.80;93.40;;;11.04;65.26;98160.03;4957213;29;20250;-68
2022/02/21 02:23:34;;;;;;;4.10;1.25;;;10.80;93.00;;;11.04;65.43;98145.69;4957671;28;20442;-68
2022/02/21 02:26:03;;;;;;;1.50;0.80;;;10.80;92.90;;;10.96;66.43;98148.94;4957743;29;20188;-69
2022/02/21 02:28:31;;;;;;;1.20;0.70;;;10.80;96.80;;;10.91;66.20;98155.16;4957336;29;20432;-68
2022/02/21 02:31:00;;;;;;;4.33;1.53;;;10.80;96.40;;;10.89;67.25;98163.53;4957486;29;20780;-69
2022/02/21 02:33:28;;;;;;;1.50;0.80;;;10.70;99.80;;;10.78;67.95;98166.53;4956808;28;20980;-69
2022/02/21 02:35:56;;;;;;;1.83;0.70;;;10.70;99.90;;;10.69;69.49;98228.44;4956584;29;20420;-69
2022/02/21 02:38:24;;;;;;;1.70;0.70;;;10.60;99.90;;;10.39;72.23;98266.22;4956962;29;20200;-70
2022/02/21 02:40:59;;;;;;;1.23;0.75;;;10.40;99.90;;;9.89;75.83;98278.34;4956908;29;20218;-70
2022/02/21 02:43:27;;;;;;;1.83;0.80;;;10.00;99.90;;;9.62;77.04;98266.03;4956450;28;20196;-69
2022/02/21 02:45:55;;;;;;;3.92;1.23;;;9.70;99.90;;;9.38;76.76;98265.56;4956698;29;20204;-70
2022/02/21 02:48:23;;;;;;;1.25;0.75;;;9.40;99.90;;;9.20;74.40;98241.69;4956970;29;20661;-68
2022/02/21 02:50:52;;;;;;;1.55;0.63;;;9.20;99.90;;;9.04;75.06;98224.56;4956672;29;20189;-69
2022/02/21 02:53:20;;;;;;;2.35;1.00;;;9.00;99.90;;;8.86;73.62;98222.25;4956666;28;20661;-68
2022/02/21 02:55:48;;;;;;;1.50;0.73;;;8.80;99.90;;;8.70;73.29;98221.28;4956955;29;20188;-69
2022/02/21 02:58:18;;;;;;;1.00;0.70;;;8.70;99.90;;;8.60;71.34;98240.03;4962170;29;20204;-69
2022/02/21 03:00:47;;;;;;;1.20;0.70;;;8.50;99.90;;;8.49;71.70;98244.50;4958101;29;20544;-70
2022/02/21 03:03:16;;;;;;;1.08;0.52;;;8.40;99.90;;;8.38;71.88;98250.00;4956667;28;20568;-69
2022/02/21 03:05:44;;;;;;;1.33;0.60;;;8.30;99.90;;;8.26;71.61;98236.66;4956628;29;20192;-69
2022/02/21 03:08:12;;;;;;;1.08;0.60;;;8.20;99.90;;;8.18;71.62;98248.66;4956297;29;20184;-71
2022/02/21 03:10:41;;;;;;;0.90;0.60;;;8.10;99.90;;;8.16;71.21;98258.91;4956527;29;20207;-70
2022/02/21 03:13:09;;;;;;;2.00;0.90;;;8.10;99.90;;;8.10;70.41;98257.19;4956744;29;20235;-70
2022/02/21 03:15:38;;;;;;;1.00;0.70;;;8.00;99.90;;;8.10;70.60;98259.88;4956371;29;20192;-68
2022/02/21 03:18:09;;;;;;;1.10;0.70;;;8.00;99.90;;;8.10;70.52;98277.94;4956510;29;20235;-71
2022/02/21 03:20:37;;;;;;;6.65;0.70;;;8.00;99.90;;;8.07;70.64;98281.94;4956410;28;20669;-69
2022/02/21 03:23:05;;;;;;;1.90;0.90;;;8.00;99.90;;;8.07;71.09;98287.34;4955837;29;20180;-70
2022/02/21 03:25:34;;;;;;;1.45;0.88;;;8.00;99.90;;;8.05;71.51;98294.84;4956191;28;20216;-70
2022/02/21 03:28:02;;;;;;;4.30;0.93;;;7.90;99.90;;;8.00;71.41;98313.63;4956478;29;20219;-70
2022/02/21 03:30:30;;;;;;;1.10;0.60;;;7.90;99.90;;;7.97;72.27;98306.03;4956675;29;20786;-69
2022/02/21 03:33:01;;;;;;;1.17;0.50;;;7.90;99.90;;;7.87;72.37;98319.34;4956495;29;20192;-69
2022/02/21 03:35:30;;;;;;;0.90;0.50;;;7.80;99.90;;;7.81;72.07;98286.16;4956744;28;20215;-69
2022/02/21 03:37:58;;;;;;;3.25;0.80;;;7.80;99.90;;;7.80;71.40;98276.44;4957643;29;20216;-69
2022/02/21 03:40:27;;;;;;;1.45;0.80;;;7.70;99.90;;;7.82;71.49;98313.91;4941777;29;20223;-72
2022/02/21 03:42:56;;;;;;;1.25;0.70;;;7.70;99.90;;;7.80;71.02;98330.28;4958875;29;20177;-70
2022/02/21 03:45:24;;;;;;;0.80;0.50;;;7.70;99.90;;;7.76;71.44;98301.41;4959992;28;20216;-71
2022/02/21 03:47:53;;;;;;;1.13;0.60;;;7.70;99.90;;;7.76;70.30;98304.94;4958709;29;20633;-70
2022/02/21 03:50:24;;;;;;;0.80;0.50;;;7.70;99.90;;;7.84;69.11;98341.41;4958692;29;20180;-70
2022/02/21 03:52:55;;;;;;;1.25;0.68;;;7.70;99.90;;;7.83;69.74;98323.59;4958719;29;20203;-69
2022/02/21 03:55:23;;;;;;;0.98;0.70;;;7.70;99.90;;;7.84;69.31;98322.56;4959088;28;20216;-70
2022/02/21 03:57:51;;;;;;;0.80;0.50;;;7.70;99.90;;;7.85;69.18;98313.38;4957835;29;20216;-70
2022/02/21 04:00:21;;;;;;;0.80;0.50;;;7.70;99.90;;;7.85;69.37;98321.47;4960086;29;20188;-70
2022/02/21 04:02:49;;;;;;;1.10;0.70;;;7.70;99.90;;;7.88;69.41;98329.06;4961804;29;20669;-70
2022/02/21 04:05:17;;;;;;;2.13;0.60;;;7.70;99.90;;;7.84;69.46;98336.81;4961536;28;20212;-70
2022/02/21 04:07:47;;;;;;;0.90;0.55;;;7.70;99.90;;;7.86;69.13;98333.88;4960760;29;20192;-69
2022/02/21 04:10:18;;;;;;;1.05;0.60;;;7.70;99.90;;;7.86;69.04;98323.91;4957996;29;20219;-71
2022/02/21 04:12:47;;;;;;;1.00;0.60;;;7.70;99.90;;;7.88;69.09;98331.75;4956670;29;20207;-70
2022/02/21 04:15:16;;;;;;;3.28;1.00;;;7.80;99.90;;;7.83;68.17;98329.00;4955725;28;20220;-69
2022/02/21 04:17:50;;;;;;;1.58;0.80;;;7.80;99.90;;;7.84;68.21;98336.00;4955945;29;20212;-70
2022/02/21 04:20:23;;;;;;;1.58;0.70;;;7.70;99.90;;;7.83;68.47;98358.59;4956126;29;20600;-70
2022/02/21 04:22:53;;;;;;;0.90;0.60;;;7.70;99.90;;;7.80;67.62;98376.03;4955678;29;20192;-69
2022/02/21 04:25:21;;;;;;;1.20;0.60;;;7.70;99.90;;;7.78;67.69;98386.25;4955430;28;20231;-70
2022/02/21 04:27:53;;;;;;;1.88;0.60;;;7.70;99.90;;;7.74;67.91;98381.63;4955807;29;20172;-69
2022/02/21 04:30:24;;;;;;;1.13;0.60;;;7.60;99.30;;;7.70;67.78;98383.13;4955359;29;20173;-70
2022/02/21 04:32:54;;;;;;;5.60;0.82;;;7.60;99.80;;;7.69;68.26;98376.16;4955076;28;20184;-70
2022/02/21 04:35:26;;;;;;;1.30;0.60;;;7.60;99.90;;;7.75;67.92;98391.31;4955199;28;20286;-73
2022/02/21 04:37:56;;;;;;;1.20;0.60;;;7.60;99.90;;;7.70;67.21;98381.25;4938301;29;20267;-70
2022/02/21 04:40:27;;;;;;;1.30;0.80;;;7.60;98.10;;;7.61;67.41;98365.78;4955563;29;20188;-70
2022/02/21 04:42:57;;;;;;;1.48;0.70;;;7.50;98.10;;;7.55;67.12;98374.84;4955575;29;20546;-70
2022/02/21 04:45:29;;;;;;;1.02;0.60;;;7.50;97.00;;;7.55;66.43;98364.84;4937793;29;20247;-69
2022/02/21 04:47:59;;;;;;;1.20;0.70;;;7.40;94.00;;;7.50;67.24;98372.06;4955448;29;20172;-70
2022/02/21 04:50:27;;;;;;;1.13;0.63;;;7.40;96.50;;;7.49;67.79;98418.84;4955022;29;20176;-71
2022/02/21 04:52:56;;;;;;;1.15;0.70;;;7.40;99.40;;;7.45;68.07;98401.56;4937664;29;20196;-68
2022/02/21 04:55:25;;;;;;;1.17;0.70;;;7.40;99.30;;;7.41;67.62;98407.41;4954730;28;20833;-69
2022/02/21 04:57:53;;;;;;;2.30;0.70;;;7.30;98.80;;;7.41;67.07;98412.78;4954840;29;20271;-70
2022/02/21 05:00:21;;;;;;;1.10;0.60;;;7.30;97.00;;;7.34;67.92;98417.53;4963222;29;20180;-68
2022/02/21 05:02:49;;;;;;;1.23;0.70;;;7.30;99.30;;;7.33;68.24;98415.06;4963504;29;20180;-70
2022/02/21 05:05:18;;;;;;;2.90;0.60;;;7.30;99.80;;;7.27;67.48;98416.84;4962762;28;20223;-69
2022/02/21 05:07:46;;;;;;;1.00;0.60;;;7.20;97.60;;;7.18;66.77;98437.13;4957699;29;20228;-71
2022/02/21 05:10:16;;;;;;;1.00;0.70;;;7.10;94.20;;;7.09;66.26;98430.47;4955167;29;20196;-70
2022/02/21 05:12:44;;;;;;;1.00;0.60;;;7.10;91.90;;;7.05;66.43;98466.16;4954754;29;20177;-69
2022/02/21 05:15:13;;;;;;;3.97;0.70;;;7.00;91.70;;;7.01;66.57;98449.69;4954369;28;20215;-70
2022/02/21 05:17:42;;;;;;;1.20;0.90;;;6.90;93.00;;;6.96;66.38;98454.97;4954470;29;20430;-70
2022/02/21 05:20:12;;;;;;;1.60;0.70;;;6.90;92.00;;;6.94;66.57;98470.50;4954340;29;20188;-69
2022/02/21 05:22:41;;;;;;;1.00;0.55;;;6.90;92.20;;;6.87;65.62;98480.59;4954365;29;20196;-70
2022/02/21 05:25:10;;;;;;;1.10;0.75;;;6.80;88.40;;;6.92;66.43;98486.06;4954131;28;20216;-70
2022/02/21 05:27:41;;;;;;;1.70;0.63;;;6.80;92.10;;;6.88;65.18;98501.84;4954488;29;20211;-68
2022/02/21 05:30:14;;;;;;;2.30;0.80;;;6.80;82.30;;;6.83;65.49;98500.91;4954873;29;20238;-70
2022/02/21 05:32:43;;;;;;;1.42;0.75;;;6.80;84.80;;;6.79;66.07;98495.19;4954693;29;20176;-69
2022/02/21 05:35:13;;;;;;;1.40;0.75;;;6.70;90.00;;;6.77;65.63;98483.06;4954864;28;20212;-68
2022/02/21 05:37:41;;;;;;;2.72;1.20;;;6.70;84.60;;;6.71;66.01;98486.69;4954715;29;20185;-71
2022/02/21 05:40:11;;;;;;;2.70;1.25;;;6.70;89.20;;;6.67;65.70;98497.09;4954738;29;20259;-69
2022/02/21 05:42:41;;;;;;;5.97;1.00;;;6.60;86.40;;;6.68;65.60;98498.69;4954585;29;20736;-70
2022/02/21 05:45:10;;;;;;;2.70;0.93;;;6.60;87.30;;;6.71;65.88;98505.50;4953807;28;20207;-70
2022/02/21 05:47:38;;;;;;;1.85;0.90;;;6.60;86.60;;;6.65;65.35;98503.72;4954222;29;20637;-72
2022/02/21 05:50:08;;;;;;;2.75;1.05;;;6.60;82.10;;;6.67;64.47;98507.84;4954208;29;20191;-71
2022/02/21 05:52:36;;;;;;;4.60;1.42;;;6.60;78.00;;;6.66;64.88;98511.56;4954507;29;20184;-69
2022/02/21 05:55:05;;;;;;;3.08;1.13;;;6.60;79.30;;;6.63;65.28;98512.06;4954213;28;20212;-70
2022/02/21 05:57:33;;;;;;;6.13;1.42;;;6.50;77.10;;;6.58;65.31;98511.94;4954132;29;20180;-69
2022/02/21 06:00:06;;;;;;;2.30;0.90;;;6.50;78.10;;;6.58;65.46;98511.94;4953947;29;20200;-70
2022/02/21 06:02:35;;;;;;;2.88;1.15;;;6.50;79.70;;;6.58;65.80;98524.53;4955778;29;20192;-73
2022/02/21 06:05:03;;;;;;;4.30;1.30;;;6.50;85.10;;;6.54;65.30;98534.91;4954422;28;20212;-71
2022/02/21 06:07:32;;;;;;;8.77;1.17;;;6.40;81.20;;;6.61;65.29;98532.13;4954407;29;20192;-69
2022/02/21 06:10:00;;;;;;;3.63;1.08;;;6.50;82.10;;;6.63;65.65;98581.91;4954094;29;20208;-70
2022/02/21 06:12:28;;;;;;;3.28;1.40;;;6.50;84.60;;;6.00;70.18;98584.34;4953824;29;20203;-69
2022/02/21 06:14:56;;;;;;;1.90;0.80;;;6.20;99.90;;;5.51;71.25;98596.13;4954076;28;20267;-70
2022/02/21 06:17:26;;;;;;;3.65;0.98;;;5.70;99.90;;;5.40;70.19;98605.75;4954389;29;20184;-70
2022/02/21 06:19:54;;;;;;;5.70;1.50;;;5.50;99.90;;;5.34;71.31;98636.13;4954145;29;20259;-70
2022/02/21 06:22:23;;;;;;;6.10;1.20;;;5.30;99.90;;;5.28;68.55;98625.50;4954268;29;20236;-68
2022/02/21 06:24:51;;;;;;;4.80;1.33;;;5.20;99.70;;;5.27;69.03;98635.41;4954373;28;20223;-70
2022/02/21 06:27:19;;;;;;;3.95;1.73;;;5.20;99.90;;;5.24;67.58;98646.53;4954246;29;20661;-70
2022/02/21 06:29:49;;;;;;;5.28;2.45;;;5.20;96.30;;;5.22;66.94;98654.00;4954182;29;20299;-71
2022/02/21 06:32:17;;;;;;;6.68;1.55;;;5.10;94.10;;;5.23;66.05;98666.34;4954068;29;20698;-71
2022/02/21 06:34:49;;;;;;;4.38;1.42;;;5.20;90.50;;;5.21;66.20;98663.09;4954002;28;20276;-70
2022/02/21 06:37:17;;;;;;;7.60;2.58;;;5.10;88.10;;;5.20;66.42;98669.47;4953851;29;20565;-70
2022/02/21 06:39:46;;;;;;;5.60;1.30;;;5.10;91.10;;;5.21;66.55;98668.44;4954025;29;20272;-68
2022/02/21 06:42:14;;;;;;;6.28;1.65;;;5.20;91.00;;;5.26;66.47;98665.94;4954056;29;20180;-70
2022/02/21 06:44:42;;;;;;;4.38;2.05;;;5.20;91.50;;;5.25;66.25;98672.31;4953626;28;20219;-69
2022/02/21 06:47:10;;;;;;;5.72;2.08;;;5.20;88.50;;;5.28;66.25;98674.56;4955043;28;20189;-69
2022/02/21 06:49:39;;;;;;;5.35;1.73;;;5.20;90.50;;;5.19;65.83;98686.59;4957730;28;20192;-68
2022/02/21 06:52:09;;;;;;;11.07;2.05;;;5.20;85.20;;;5.18;66.04;98679.63;4954392;29;20196;-69
2022/02/21 06:54:37;;;;;;;7.53;1.80;;;5.10;90.00;;;5.21;65.95;98684.53;4954366;29;20211;-69
2022/02/21 06:57:07;;;;;;;6.97;1.50;;;5.10;85.90;;;5.33;66.29;98701.53;4963624;28;20218;-69
2022/02/21 06:59:35;;;;;;;8.32;1.65;;;5.20;88.50;;;5.38;66.69;98711.59;4957619;28;20204;-69
2022/02/21 07:02:04;;;;;;;5.63;1.42;;;5.30;99.90;;;5.31;66.67;98711.66;4971312;28;20184;-69
2022/02/21 07:04:32;;;;;;;7.63;2.50;;;5.30;99.90;;;5.31;67.40;98711.66;4976560;28;20274;-69
2022/02/21 07:07:00;;;;;;;11.55;1.60;;;5.30;99.90;;;5.26;66.97;98719.56;4957514;29;20188;-69
2022/02/21 07:09:30;;;;;;;8.82;2.67;;;5.20;99.90;;;5.32;67.58;98720.53;4957015;29;20199;-71
2022/02/21 07:11:58;;;;;;;5.25;2.58;;;5.20;99.90;;;5.43;68.39;98723.28;4956330;29;20180;-68
2022/02/21 07:14:27;;;;;;;6.38;1.67;;;5.30;99.90;;;5.38;67.92;98720.44;4956989;28;20716;-69
2022/02/21 07:16:55;;;;;;;6.25;1.67;;;5.30;99.90;;;5.41;68.06;98733.44;4959735;28;20262;-68
2022/02/21 07:19:24;;;;;;;5.57;1.52;;;5.40;99.90;;;5.38;68.01;98738.41;4973573;28;20235;-70
2022/02/21 07:21:53;;;;;;;3.65;1.75;;;5.30;99.90;;;5.33;69.56;98757.84;4975671;28;20191;-70
2022/02/21 07:24:21;;;;;;;5.45;1.65;;;5.30;99.90;;;5.18;70.17;98789.56;4975662;28;20610;-66
2022/02/21 07:26:51;;;;;;;3.65;2.00;;;5.20;99.90;;;4.40;73.49;98790.88;4967410;28;20200;-68
2022/02/21 07:29:19;;;;;;;4.38;1.73;;;4.70;99.90;;;4.09;76.41;98775.56;4971963;28;20199;-69
2022/02/21 07:31:47;;;;;;;3.63;2.03;;;4.30;99.90;;;4.02;77.01;98766.75;4976120;28;20652;-69
2022/02/21 07:34:16;;;;;;;7.40;2.90;;;4.10;99.90;;;4.03;76.86;98768.34;4994170;23;21344;-77
2022/02/21 07:36:45;;;;;;;7.13;1.77;;;4.00;99.90;;;4.15;76.37;98769.34;5005640;28;20191;-75
2022/02/21 07:39:14;;;;;;;6.75;2.03;;;4.10;99.90;;;4.28;75.83;98780.00;4997950;28;20623;-76
2022/02/21 07:41:43;;;;;;;9.68;3.58;;;4.20;99.90;;;4.44;74.98;98784.03;4988044;28;20179;-74
2022/02/21 07:44:14;;;;;;;8.43;2.97;;;4.30;99.90;;;4.52;75.35;98787.28;4989778;28;20215;-74
2022/02/21 07:46:43;;;;;;;4.90;1.95;;;4.40;99.90;;;4.65;74.52;98792.56;4988977;28;20195;-77
2022/02/21 07:49:11;;;;;;;7.45;1.85;;;4.50;99.90;;;4.78;73.15;98786.31;4973299;28;20511;-76
2022/02/21 07:51:40;;;;;;;8.38;2.45;;;4.60;99.90;;;5.02;72.71;98787.41;4987084;28;20196;-75
2022/02/21 07:54:09;;;;;;;6.07;2.40;;;4.80;99.90;;;5.12;71.55;98793.91;4986707;28;20230;-75
2022/02/21 07:57:00;;;;;;;5.90;3.20;;;4.90;99.90;;;5.21;70.66;98799.81;4969088;28;20192;-75
2022/02/21 07:59:30;;;;;;;6.38;2.78;;;5.10;99.90;;;5.21;70.58;98791.78;4984699;28;20215;-75
2022/02/21 08:01:59;;;;;;;4.25;1.75;;;5.10;99.90;;;5.24;69.59;98797.53;4966402;28;20227;-75
2022/02/21 08:04:29;;;;;;;11.43;2.90;;;5.20;99.90;;;5.26;68.87;98797.31;4985513;28;20207;-75
2022/02/21 08:06:58;;;;;;;8.13;3.05;;;5.20;99.90;;;5.35;69.31;98803.22;4987299;28;20183;-76
2022/02/21 08:09:27;;;;;;;2.08;1.65;;;5.20;99.90;;;5.41;67.29;98791.63;4988426;28;20237;-76
2022/02/21 08:11:57;;;;;;;7.03;2.90;;;5.30;99.90;;;5.67;66.95;98794.03;4989172;28;20167;-76
2022/02/21 08:14:26;;;;;;;8.90;3.00;;;5.50;99.90;;;5.88;65.66;98804.41;4988236;28;20202;-76
2022/02/21 08:16:56;;;;;;;7.50;2.30;;;5.70;99.90;;;5.80;64.65;98817.25;4986811;28;20214;-76
2022/02/21 08:19:27;;;;;;;6.75;2.15;;;5.70;99.90;;;5.85;64.02;98801.31;4973151;28;20246;-77
2022/02/21 08:21:57;;;;;;;9.35;5.43;;;5.80;99.90;;;6.02;62.72;98813.13;4990753;28;20190;-74
2022/02/21 08:24:27;;;;;;;10.57;5.35;;;5.90;99.90;;;6.22;63.16;98819.09;4990576;28;20184;-75
2022/02/21 08:26:57;;;;;;;12.57;4.45;;;6.00;99.90;;;6.41;62.50;98820.72;4990806;28;20211;-75
2022/02/21 08:29:32;;;;;;;10.38;3.80;;;6.20;99.90;;;6.54;61.79;98841.22;4974253;28;20306;-75
2022/02/21 08:32:04;;;;;;;3.58;1.20;;;6.40;99.90;;;6.38;60.58;98821.19;4973308;28;20187;-76
2022/02/21 08:34:34;;;;;;;5.47;1.75;;;6.40;99.90;;;6.36;61.26;98823.25;4974040;28;20250;-75
2022/02/21 08:37:03;;;;;;;6.88;2.05;;;6.40;99.90;;;6.28;60.96;98817.38;4988696;28;20544;-78
2022/02/21 08:39:32;;;;;;;8.63;1.90;;;6.30;99.90;;;5.97;61.14;98823.72;4971135;28;20219;-77
2022/02/21 08:42:01;;;;;;;5.90;1.60;;;6.00;99.90;;;6.03;61.53;98829.03;4969799;28;20199;-76
2022/02/21 08:44:31;;;;;;;4.38;1.30;;;6.00;99.90;;;6.04;61.60;98846.78;4985153;28;20183;-76
2022/02/21 08:47:01;;;;;;;3.75;2.00;;;6.00;99.90;;;6.02;61.25;98842.66;4988447;28;20172;-76
2022/02/21 08:49:31;;;;;;;5.80;2.00;;;6.00;99.90;;;6.16;61.95;98852.22;4987178;28;20207;-75
2022/02/21 08:51:59;;;;;;;6.63;1.67;;;6.00;99.90;;;6.24;61.16;98857.31;4970133;28;20183;-76
2022/02/21 08:54:28;;;;;;;15.75;3.00;;;6.10;99.90;;;6.11;60.38;98849.38;4988909;28;20234;-76
2022/02/21 08:56:57;;;;;;;5.07;2.00;;;6.10;99.90;;;6.16;60.74;98860.25;4988978;28;20191;-75
2022/02/21 08:59:26;;;;;;;5.47;2.10;;;6.10;99.90;;;6.24;60.40;98870.72;4986655;28;20207;-75
2022/02/21 09:02:02;;;;;;;8.57;2.05;;;6.20;99.90;;;6.19;60.28;98867.91;4991514;28;20235;-76
2022/02/21 09:09:09;;;;;;;4.70;1.30;;;6.10;99.90;;;5.96;60.57;98886.50;4981244;28;20223;-75
2022/02/21 09:13:00;;;;;;;7.50;2.67;;;6.00;99.90;;;6.19;60.18;98865.22;4986135;28;20206;-77
2022/02/21 09:16:39;;;;;;;9.52;1.80;;;6.00;99.90;;;6.26;60.04;98876.69;4969439;28;20210;-74
2022/02/21 09:23:51;;;;;;;16.92;2.17;;;6.20;99.90;;;6.39;59.64;98891.84;4960445;29;20212;-77
2022/02/21 09:26:39;;;;;;;7.63;2.58;;;6.20;99.90;;;6.32;58.51;98881.16;4949207;29;20211;-74
2022/02/21 09:29:08;;;;;;;6.20;2.40;;;6.30;99.70;;;6.38;58.36;98885.66;4963561;28;20300;-76
2022/02/21 09:31:36;;;;;;;8.20;2.20;;;6.30;99.90;;;6.61;58.18;98884.16;4968114;29;20180;-75
2022/02/21 09:34:04;;;;;;;3.25;1.17;;;6.40;99.90;;;6.22;57.80;98888.91;4966641;28;20180;-75
2022/02/21 09:36:33;;;;;;;10.02;1.95;;;6.30;99.90;;;6.00;58.60;98879.66;4966234;29;20236;-75
2022/02/21 09:39:03;;;;;;;7.93;2.03;;;6.10;99.90;;;6.17;59.31;98902.19;4965838;28;20226;-75
2022/02/21 09:41:32;;;;;;;9.35;1.92;;;6.10;1.00;;;6.13;58.59;98910.91;4964250;29;20200;-76
2022/02/21 09:44:01;;;;;;;5.05;1.55;;;6.10;99.90;;;6.15;57.85;98896.22;4949575;29;20729;-76
2022/02/21 09:46:32;;;;;;;9.05;1.88;;;6.10;99.90;;;6.12;57.44;98902.03;4965832;29;20203;-76
2022/02/21 09:49:03;;;;;;;8.82;2.25;;;6.10;99.90;;;6.14;57.63;98905.34;4966479;28;20584;-75
2022/02/21 09:51:33;;;;;;;4.60;1.35;;;6.10;99.90;;;6.30;57.03;98898.53;4948078;29;20256;-76
2022/02/21 09:54:04;;;;;;;3.40;1.70;;;6.20;99.90;;;6.24;57.11;98912.88;4964368;29;20192;-75
2022/02/21 09:56:35;;;;;;;4.72;1.90;;;6.20;99.90;;;6.47;56.28;98911.19;4964943;29;20164;-77
2022/02/21 09:59:05;;;;;;;5.70;2.78;;;6.30;99.90;;;6.61;56.46;98911.84;4962151;28;20226;-76
2022/02/21 10:01:38;;;;;;;3.05;1.70;;;6.50;99.90;;;6.74;55.24;98926.97;4965451;29;20567;-76
2022/02/21 10:04:11;;;;;;;9.10;1.58;;;6.60;99.90;;;6.84;56.21;98932.66;4947376;29;20199;-76
2022/02/21 10:06:41;;;;;;;5.75;2.38;;;6.70;97.60;;;6.73;55.05;98918.09;4965327;29;20175;-76
2022/02/21 10:09:13;;;;;;;8.82;2.70;;;6.70;90.50;;;6.81;55.29;98925.06;4964275;28;20200;-75
2022/02/21 10:11:45;;;;;;;7.05;2.00;;;6.80;83.40;;;7.51;54.65;98936.09;4962595;29;20199;-75
2022/02/21 10:14:16;;;;;;;11.30;2.95;;;7.20;85.60;;;7.26;53.62;98936.25;4965186;29;20181;-74
2022/02/21 10:16:48;;;;;;;6.82;2.30;;;7.20;78.80;;;7.16;54.49;98936.81;4965847;29;20185;-76
2022/02/21 10:19:21;;;;;;;8.25;2.25;;;7.10;77.00;;;6.99;54.22;98919.63;4962881;29;20262;-76
2022/02/21 10:22:04;;;;;;;6.35;2.08;;;7.00;74.70;;;6.88;54.84;98939.22;4961154;29;20196;-75
2022/02/21 10:24:43;;;;;;;12.18;2.50;;;6.90;72.90;;;6.77;55.57;98940.00;4958350;29;20215;-75
2022/02/21 10:27:15;;;;;;;7.50;2.40;;;6.70;73.60;;;6.77;55.24;98942.69;4960614;29;20223;-76
2022/02/21 10:29:50;;;;;;;6.78;2.83;;;6.70;71.10;;;6.73;55.13;98941.50;4961034;28;20219;-78
2022/02/21 10:32:22;;;;;;;10.57;2.22;;;6.60;70.70;;;6.67;55.65;98945.06;4965364;28;20172;-77
2022/02/21 10:34:52;;;;;;;9.73;3.00;;;6.60;69.10;;;6.59;55.42;98951.53;4964183;29;20208;-76
2022/02/21 10:37:24;;;;;;;6.57;1.98;;;6.50;68.30;;;6.68;54.71;98933.28;4964562;29;20184;-75
2022/02/21 10:40:07;;;;;;;4.75;1.73;;;6.60;68.00;;;6.72;54.88;98956.78;4965121;28;20794;-77
2022/02/21 10:42:39;;;;;;;9.70;2.35;;;6.60;66.70;;;6.75;55.68;98955.50;4966916;29;20204;-76
2022/02/21 10:45:15;;;;;;;5.53;2.00;;;6.60;67.30;;;6.62;55.53;98953.81;4967953;29;20184;-76
2022/02/21 10:48:04;;;;;;;5.35;1.33;;;6.60;65.80;;;6.36;56.44;98956.75;4966233;29;20180;-76
2022/02/21 10:50:38;;;;;;;2.97;1.88;;;6.40;79.60;;;6.53;56.83;98961.31;4964828;29;20327;-76
2022/02/21 10:53:11;;;;;;;9.18;2.53;;;6.40;67.80;;;6.47;56.84;98967.59;4965351;29;20254;-77